sensor_id;sensor_type;location;lat;lon;timestamp;pressure;altitude;pressure_sealevel;temperature;humidity
10992;BME280;5549;47.028;15.514;2023-01-28T00:00:00;96598.75;;;0.79;76.66
10992;BME280;5549;47.028;15.514;2023-01-28T00:02:32;96595.69;;;0.89;76.64
10992;BME280;5549;47.028;15.514;2023-01-28T00:04:59;96597.97;;;0.95;76.51
10992;BME280;5549;47.028;15.514;2023-01-28T00:07:27;96596.94;;;1.00;76.54
10992;BME280;5549;47.028;15.514;2023-01-28T00:09:57;96600.28;;;1.02;76.34
10992;BME280;5549;47.028;15.514;2023-01-28T00:12:27;96604.41;;;1.06;75.52
10992;BME280;5549;47.028;15.514;2023-01-28T00:14:59;96600.44;;;0.99;76.04
10992;BME280;5549;47.028;15.514;2023-01-28T00:17:27;96603.16;;;0.95;76.04
10992;BME280;5549;47.028;15.514;2023-01-28T00:19:59;96597.84;;;0.99;75.50
10992;BME280;5549;47.028;15.514;2023-01-28T00:22:26;96606.28;;;1.02;75.75
10992;BME280;5549;47.028;15.514;2023-01-28T00:24:54;96602.25;;;0.96;76.10
10992;BME280;5549;47.028;15.514;2023-01-28T00:27:24;96607.91;;;1.05;75.48
10992;BME280;5549;47.028;15.514;2023-01-28T00:29:51;96609.22;;;1.13;75.67
10992;BME280;5549;47.028;15.514;2023-01-28T00:32:20;96603.34;;;1.10;75.66
10992;BME280;5549;47.028;15.514;2023-01-28T00:34:48;96616.91;;;1.15;75.63
10992;BME280;5549;47.028;15.514;2023-01-28T00:37:17;96609.94;;;0.98;75.46
10992;BME280;5549;47.028;15.514;2023-01-28T00:39:45;96608.38;;;0.94;75.92
10992;BME280;5549;47.028;15.514;2023-01-28T00:42:14;96607.13;;;1.03;75.76
10992;BME280;5549;47.028;15.514;2023-01-28T00:44:44;96605.19;;;1.08;75.34
10992;BME280;5549;47.028;15.514;2023-01-28T00:47:12;96601.41;;;1.15;74.87
10992;BME280;5549;47.028;15.514;2023-01-28T00:49:39;96605.94;;;1.10;74.89
10992;BME280;5549;47.028;15.514;2023-01-28T00:52:07;96606.09;;;1.07;74.73
10992;BME280;5549;47.028;15.514;2023-01-28T00:54:37;96616.56;;;1.04;74.95
10992;BME280;5549;47.028;15.514;2023-01-28T00:57:04;96611.41;;;1.04;74.83
10992;BME280;5549;47.028;15.514;2023-01-28T00:59:33;96609.78;;;0.82;75.37
10992;BME280;5549;47.028;15.514;2023-01-28T01:02:00;96614.41;;;0.94;75.10
10992;BME280;5549;47.028;15.514;2023-01-28T01:04:37;96607.25;;;0.81;74.93
10992;BME280;5549;47.028;15.514;2023-01-28T01:07:07;96616.75;;;0.80;75.37
10992;BME280;5549;47.028;15.514;2023-01-28T01:09:40;96613.84;;;0.88;74.59
10992;BME280;5549;47.028;15.514;2023-01-28T01:12:07;96613.84;;;0.88;74.66
10992;BME280;5549;47.028;15.514;2023-01-28T01:14:35;96621.59;;;0.88;75.12
10992;BME280;5549;47.028;15.514;2023-01-28T01:17:03;96621.59;;;0.88;75.01
10992;BME280;5549;47.028;15.514;2023-01-28T01:19:30;96633.38;;;0.75;75.22
10992;BME280;5549;47.028;15.514;2023-01-28T01:21:58;96632.53;;;0.74;75.54
10992;BME280;5549;47.028;15.514;2023-01-28T01:24:26;96627.25;;;0.77;75.58
10992;BME280;5549;47.028;15.514;2023-01-28T01:27:02;96627.91;;;0.62;75.96
10992;BME280;5549;47.028;15.514;2023-01-28T01:29:33;96619.91;;;0.68;75.58
10992;BME280;5549;47.028;15.514;2023-01-28T01:32:01;96623.66;;;0.61;75.90
10992;BME280;5549;47.028;15.514;2023-01-28T01:34:28;96624.22;;;0.68;75.64
10992;BME280;5549;47.028;15.514;2023-01-28T01:36:56;96631.97;;;0.68;75.90
10992;BME280;5549;47.028;15.514;2023-01-28T01:39:23;96628.31;;;0.53;75.96
10992;BME280;5549;47.028;15.514;2023-01-28T01:41:53;96630.44;;;0.63;75.65
10992;BME280;5549;47.028;15.514;2023-01-28T01:45:03;96624.75;;;0.55;75.14
10992;BME280;5549;47.028;15.514;2023-01-28T01:47:39;96624.28;;;0.66;75.37
10992;BME280;5549;47.028;15.514;2023-01-28T01:50:17;96629.59;;;0.63;75.66
10992;BME280;5549;47.028;15.514;2023-01-28T01:52:49;96626.66;;;0.71;75.21
10992;BME280;5549;47.028;15.514;2023-01-28T01:55:20;96630.16;;;0.70;75.05
10992;BME280;5549;47.028;15.514;2023-01-28T01:57:52;96635.91;;;0.76;74.75
10992;BME280;5549;47.028;15.514;2023-01-28T02:00:23;96634.50;;;0.69;74.62
10992;BME280;5549;47.028;15.514;2023-01-28T02:02:53;96634.94;;;0.79;74.72
10992;BME280;5549;47.028;15.514;2023-01-28T02:05:22;96638.50;;;0.76;74.45
10992;BME280;5549;47.028;15.514;2023-01-28T02:07:52;96640.66;;;0.85;74.14
10992;BME280;5549;47.028;15.514;2023-01-28T02:10:41;96638.72;;;0.90;74.33
10992;BME280;5549;47.028;15.514;2023-01-28T02:13:11;96638.56;;;0.93;74.35
10992;BME280;5549;47.028;15.514;2023-01-28T02:15:41;96639.41;;;0.94;73.69
10992;BME280;5549;47.028;15.514;2023-01-28T02:18:11;96632.00;;;0.86;73.58
10992;BME280;5549;47.028;15.514;2023-01-28T02:21:00;96635.34;;;0.88;73.73
10992;BME280;5549;47.028;15.514;2023-01-28T02:23:54;96635.78;;;0.79;73.47
10992;BME280;5549;47.028;15.514;2023-01-28T02:27:00;96633.53;;;0.90;73.24
10992;BME280;5549;47.028;15.514;2023-01-28T02:29:40;96640.41;;;0.91;72.94
10992;BME280;5549;47.028;15.514;2023-01-28T02:32:15;96625.66;;;0.93;73.61
10992;BME280;5549;47.028;15.514;2023-01-28T02:34:51;96633.28;;;0.96;73.33
10992;BME280;5549;47.028;15.514;2023-01-28T02:37:28;96629.78;;;0.98;73.11
10992;BME280;5549;47.028;15.514;2023-01-28T02:40:05;96630.47;;;1.01;73.43
10992;BME280;5549;47.028;15.514;2023-01-28T02:42:37;96630.63;;;0.98;73.46
10992;BME280;5549;47.028;15.514;2023-01-28T02:45:17;96626.16;;;1.02;73.42
10992;BME280;5549;47.028;15.514;2023-01-28T02:47:49;96631.66;;;0.94;73.54
10992;BME280;5549;47.028;15.514;2023-01-28T02:50:33;96636.63;;;0.99;73.33
10992;BME280;5549;47.028;15.514;2023-01-28T02:53:17;96630.28;;;1.06;73.02
10992;BME280;5549;47.028;15.514;2023-01-28T02:56:14;96626.00;;;1.05;72.82
10992;BME280;5549;47.028;15.514;2023-01-28T02:58:51;96620.84;;;1.05;73.24
10992;BME280;5549;47.028;15.514;2023-01-28T03:01:29;96624.19;;;1.07;73.11
10992;BME280;5549;47.028;15.514;2023-01-28T03:04:02;96624.31;;;1.04;72.79
10992;BME280;5549;47.028;15.514;2023-01-28T03:06:36;96625.88;;;1.08;73.04
10992;BME280;5549;47.028;15.514;2023-01-28T03:09:09;96625.59;;;1.14;73.13
10992;BME280;5549;47.028;15.514;2023-01-28T03:11:55;96627.25;;;1.15;73.14
10992;BME280;5549;47.028;15.514;2023-01-28T03:14:48;96630.63;;;1.17;73.04
10992;BME280;5549;47.028;15.514;2023-01-28T03:17:42;96629.09;;;1.13;72.95
10992;BME280;5549;47.028;15.514;2023-01-28T03:20:38;96626.63;;;1.10;72.45
10992;BME280;5549;47.028;15.514;2023-01-28T03:23:28;96623.78;;;1.16;72.46
10992;BME280;5549;47.028;15.514;2023-01-28T03:26:17;96623.50;;;1.22;72.77
10992;BME280;5549;47.028;15.514;2023-01-28T03:29:07;96620.69;;;1.26;72.83
10992;BME280;5549;47.028;15.514;2023-01-28T03:31:55;96624.81;;;1.12;72.64
10992;BME280;5549;47.028;15.514;2023-01-28T03:34:43;96630.06;;;1.10;72.39
10992;BME280;5549;47.028;15.514;2023-01-28T03:37:29;96634.94;;;1.16;72.70
10992;BME280;5549;47.028;15.514;2023-01-28T03:40:02;96637.59;;;1.15;72.27
10992;BME280;5549;47.028;15.514;2023-01-28T03:42:33;96637.97;;;1.07;72.88
10992;BME280;5549;47.028;15.514;2023-01-28T03:45:02;96631.53;;;1.16;72.37
10992;BME280;5549;47.028;15.514;2023-01-28T03:47:32;96631.25;;;1.22;72.63
10992;BME280;5549;47.028;15.514;2023-01-28T03:50:01;96637.19;;;1.24;72.65
10992;BME280;5549;47.028;15.514;2023-01-28T03:52:32;96638.94;;;1.23;72.60
10992;BME280;5549;47.028;15.514;2023-01-28T03:55:03;96637.81;;;1.29;72.71
10992;BME280;5549;47.028;15.514;2023-01-28T03:57:38;96635.94;;;1.33;72.50
10992;BME280;5549;47.028;15.514;2023-01-28T04:00:08;96629.78;;;1.35;72.45
10992;BME280;5549;47.028;15.514;2023-01-28T04:02:37;96626.41;;;1.33;72.11
10992;BME280;5549;47.028;15.514;2023-01-28T04:05:09;96640.25;;;1.32;71.64
10992;BME280;5549;47.028;15.514;2023-01-28T04:07:38;96632.34;;;1.35;72.32
10992;BME280;5549;47.028;15.514;2023-01-28T04:10:08;96635.09;;;1.13;72.81
10992;BME280;5549;47.028;15.514;2023-01-28T04:12:38;96628.09;;;1.15;72.69
10992;BME280;5549;47.028;15.514;2023-01-28T04:15:07;96630.63;;;1.17;72.47
10992;BME280;5549;47.028;15.514;2023-01-28T04:17:43;96639.34;;;1.14;73.15
10992;BME280;5549;47.028;15.514;2023-01-28T04:20:16;96641.94;;;0.95;73.32
10992;BME280;5549;47.028;15.514;2023-01-28T04:22:44;96646.25;;;0.76;74.08
10992;BME280;5549;47.028;15.514;2023-01-28T04:25:11;96646.41;;;0.53;75.63
10992;BME280;5549;47.028;15.514;2023-01-28T04:27:39;96654.53;;;0.64;74.88
10992;BME280;5549;47.028;15.514;2023-01-28T04:30:09;96647.34;;;0.71;74.19
10992;BME280;5549;47.028;15.514;2023-01-28T04:32:37;96647.78;;;0.80;74.80
10992;BME280;5549;47.028;15.514;2023-01-28T04:35:05;96648.06;;;0.74;75.04
10992;BME280;5549;47.028;15.514;2023-01-28T04:37:37;96653.94;;;0.78;74.96
10992;BME280;5549;47.028;15.514;2023-01-28T04:40:06;96652.72;;;0.66;75.38
10992;BME280;5549;47.028;15.514;2023-01-28T04:42:33;96659.97;;;0.58;75.52
10992;BME280;5549;47.028;15.514;2023-01-28T04:45:04;96657.38;;;0.58;76.00
10992;BME280;5549;47.028;15.514;2023-01-28T04:47:32;96668.50;;;0.60;75.54
10992;BME280;5549;47.028;15.514;2023-01-28T04:50:00;96663.44;;;0.57;75.74
10992;BME280;5549;47.028;15.514;2023-01-28T04:52:27;96663.31;;;0.60;75.83
10992;BME280;5549;47.028;15.514;2023-01-28T04:54:56;96668.56;;;0.58;76.30
10992;BME280;5549;47.028;15.514;2023-01-28T04:57:24;96666.75;;;0.60;76.11
10992;BME280;5549;47.028;15.514;2023-01-28T04:59:51;96669.00;;;0.68;76.34
10992;BME280;5549;47.028;15.514;2023-01-28T05:02:19;96677.38;;;0.73;75.70
10992;BME280;5549;47.028;15.514;2023-01-28T05:04:48;96671.97;;;0.79;75.49
10992;BME280;5549;47.028;15.514;2023-01-28T05:07:16;96683.97;;;0.80;75.69
10992;BME280;5549;47.028;15.514;2023-01-28T05:09:46;96683.00;;;0.83;75.30
10992;BME280;5549;47.028;15.514;2023-01-28T05:12:17;96694.00;;;0.68;75.80
10992;BME280;5549;47.028;15.514;2023-01-28T05:14:45;96693.03;;;0.70;75.66
10992;BME280;5549;47.028;15.514;2023-01-28T05:17:13;96684.91;;;0.59;75.80
10992;BME280;5549;47.028;15.514;2023-01-28T05:19:40;96687.88;;;0.70;75.44
10992;BME280;5549;47.028;15.514;2023-01-28T05:22:11;96700.31;;;0.81;75.22
10992;BME280;5549;47.028;15.514;2023-01-28T05:24:38;96691.41;;;0.88;75.24
10992;BME280;5549;47.028;15.514;2023-01-28T05:27:06;96697.13;;;0.94;74.84
10992;BME280;5549;47.028;15.514;2023-01-28T05:29:35;96695.53;;;0.92;75.05
10992;BME280;5549;47.028;15.514;2023-01-28T05:32:05;96702.19;;;0.98;74.82
10992;BME280;5549;47.028;15.514;2023-01-28T05:34:33;96710.50;;;1.04;74.39
10992;BME280;5549;47.028;15.514;2023-01-28T05:37:01;96717.16;;;1.10;73.92
10992;BME280;5549;47.028;15.514;2023-01-28T05:39:29;96713.59;;;1.12;74.16
10992;BME280;5549;47.028;15.514;2023-01-28T05:41:57;96717.84;;;1.13;73.63
10992;BME280;5549;47.028;15.514;2023-01-28T05:44:25;96715.06;;;1.18;74.08
10992;BME280;5549;47.028;15.514;2023-01-28T05:46:56;96719.41;;;1.17;74.15
10992;BME280;5549;47.028;15.514;2023-01-28T05:49:23;96715.69;;;1.23;73.87
10992;BME280;5549;47.028;15.514;2023-01-28T05:51:51;96721.91;;;1.19;73.43
10992;BME280;5549;47.028;15.514;2023-01-28T05:54:21;96721.78;;;1.22;73.63
10992;BME280;5549;47.028;15.514;2023-01-28T05:56:49;96715.50;;;1.27;73.52
10992;BME280;5549;47.028;15.514;2023-01-28T05:59:16;96718.72;;;1.33;73.49
10992;BME280;5549;47.028;15.514;2023-01-28T06:01:44;96722.13;;;1.33;73.54
10992;BME280;5549;47.028;15.514;2023-01-28T06:04:15;96721.88;;;1.39;73.20
10992;BME280;5549;47.028;15.514;2023-01-28T06:06:44;96732.16;;;1.41;73.50
10992;BME280;5549;47.028;15.514;2023-01-28T06:09:11;96727.66;;;1.44;73.35
10992;BME280;5549;47.028;15.514;2023-01-28T06:11:41;96731.88;;;1.47;72.28
10992;BME280;5549;47.028;15.514;2023-01-28T06:14:13;96731.81;;;1.48;72.65
10992;BME280;5549;47.028;15.514;2023-01-28T06:16:41;96741.25;;;1.49;72.49
10992;BME280;5549;47.028;15.514;2023-01-28T06:19:09;96729.84;;;1.53;72.40
10992;BME280;5549;47.028;15.514;2023-01-28T06:21:38;96732.28;;;1.56;72.43
10992;BME280;5549;47.028;15.514;2023-01-28T06:24:05;96739.91;;;1.59;72.03
10992;BME280;5549;47.028;15.514;2023-01-28T06:26:33;96747.81;;;1.56;72.28
10992;BME280;5549;47.028;15.514;2023-01-28T06:29:00;96752.16;;;1.56;72.21
10992;BME280;5549;47.028;15.514;2023-01-28T06:31:28;96760.00;;;1.54;72.58
10992;BME280;5549;47.028;15.514;2023-01-28T06:33:58;96760.81;;;1.55;72.29
10992;BME280;5549;47.028;15.514;2023-01-28T06:36:25;96753.84;;;1.57;72.62
10992;BME280;5549;47.028;15.514;2023-01-28T06:38:55;96762.38;;;1.59;72.59
10992;BME280;5549;47.028;15.514;2023-01-28T06:41:22;96760.63;;;1.59;72.23
10992;BME280;5549;47.028;15.514;2023-01-28T06:43:52;96763.00;;;1.64;71.98
10992;BME280;5549;47.028;15.514;2023-01-28T06:46:20;96758.59;;;1.66;72.21
10992;BME280;5549;47.028;15.514;2023-01-28T06:48:49;96765.44;;;1.67;71.94
10992;BME280;5549;47.028;15.514;2023-01-28T06:51:19;96772.31;;;1.68;72.24
10992;BME280;5549;47.028;15.514;2023-01-28T06:53:49;96774.81;;;1.70;71.99
10992;BME280;5549;47.028;15.514;2023-01-28T06:56:18;96781.56;;;1.74;72.10
10992;BME280;5549;47.028;15.514;2023-01-28T06:58:46;96782.44;;;1.73;71.64
10992;BME280;5549;47.028;15.514;2023-01-28T07:01:13;96776.50;;;1.71;71.52
10992;BME280;5549;47.028;15.514;2023-01-28T07:03:41;96779.03;;;1.72;71.45
10992;BME280;5549;47.028;15.514;2023-01-28T07:06:11;96779.75;;;1.76;72.02
10992;BME280;5549;47.028;15.514;2023-01-28T07:08:40;96789.13;;;1.78;71.94
10992;BME280;5549;47.028;15.514;2023-01-28T07:11:08;96790.94;;;1.76;71.92
10992;BME280;5549;47.028;15.514;2023-01-28T07:13:39;96782.13;;;1.80;71.35
10992;BME280;5549;47.028;15.514;2023-01-28T07:16:07;96786.19;;;2.05;77.02
10992;BME280;5549;47.028;15.514;2023-01-28T07:18:37;96785.13;;;2.62;84.43
10992;BME280;5549;47.028;15.514;2023-01-28T07:21:07;96781.16;;;3.24;86.45
10992;BME280;5549;47.028;15.514;2023-01-28T07:23:34;96781.03;;;3.76;85.20
10992;BME280;5549;47.028;15.514;2023-01-28T07:26:03;96774.59;;;4.14;81.76
10992;BME280;5549;47.028;15.514;2023-01-28T07:28:31;96780.63;;;4.31;78.76
10992;BME280;5549;47.028;15.514;2023-01-28T07:31:02;96791.53;;;4.22;75.75
10992;BME280;5549;47.028;15.514;2023-01-28T07:33:29;96785.75;;;4.01;72.42
10992;BME280;5549;47.028;15.514;2023-01-28T07:35:57;96792.78;;;3.83;72.39
10992;BME280;5549;47.028;15.514;2023-01-28T07:38:24;96796.19;;;3.68;71.25
10992;BME280;5549;47.028;15.514;2023-01-28T07:40:52;96797.69;;;3.56;70.11
10992;BME280;5549;47.028;15.514;2023-01-28T07:43:19;96798.44;;;3.41;69.63
10992;BME280;5549;47.028;15.514;2023-01-28T07:45:47;96798.91;;;3.32;70.15
10992;BME280;5549;47.028;15.514;2023-01-28T07:48:16;96803.59;;;3.25;69.94
10992;BME280;5549;47.028;15.514;2023-01-28T07:50:43;96803.22;;;3.15;69.37
10992;BME280;5549;47.028;15.514;2023-01-28T07:53:15;96801.94;;;3.07;69.65
10992;BME280;5549;47.028;15.514;2023-01-28T07:55:43;96805.13;;;2.95;69.26
10992;BME280;5549;47.028;15.514;2023-01-28T07:58:11;96809.63;;;2.91;69.03
10992;BME280;5549;47.028;15.514;2023-01-28T08:00:40;96807.94;;;2.73;68.55
10992;BME280;5549;47.028;15.514;2023-01-28T08:03:13;96810.16;;;2.63;68.39
10992;BME280;5549;47.028;15.514;2023-01-28T08:05:46;96822.09;;;2.48;68.35
10992;BME280;5549;47.028;15.514;2023-01-28T08:08:14;96817.75;;;2.49;68.47
10992;BME280;5549;47.028;15.514;2023-01-28T08:10:42;96824.78;;;2.47;68.22
10992;BME280;5549;47.028;15.514;2023-01-28T08:13:11;96829.47;;;2.39;69.43
10992;BME280;5549;47.028;15.514;2023-01-28T08:15:39;96827.56;;;2.42;69.42
10992;BME280;5549;47.028;15.514;2023-01-28T08:18:09;96829.16;;;2.28;69.19
10992;BME280;5549;47.028;15.514;2023-01-28T08:20:42;96837.25;;;2.39;69.40
10992;BME280;5549;47.028;15.514;2023-01-28T08:23:14;96829.78;;;2.33;69.14
10992;BME280;5549;47.028;15.514;2023-01-28T08:25:46;96829.16;;;2.28;69.18
10992;BME280;5549;47.028;15.514;2023-01-28T08:28:15;96836.28;;;2.22;69.34
10992;BME280;5549;47.028;15.514;2023-01-28T08:30:43;96831.97;;;2.04;69.93
10992;BME280;5549;47.028;15.514;2023-01-28T08:33:14;96842.47;;;2.01;69.45
10992;BME280;5549;47.028;15.514;2023-01-28T08:35:44;96839.81;;;2.03;69.64
10992;BME280;5549;47.028;15.514;2023-01-28T08:38:13;96845.75;;;2.05;70.14
10992;BME280;5549;47.028;15.514;2023-01-28T08:40:45;96854.28;;;2.07;69.49
10992;BME280;5549;47.028;15.514;2023-01-28T08:43:12;96849.53;;;1.98;70.14
10992;BME280;5549;47.028;15.514;2023-01-28T08:45:40;96861.22;;;2.06;69.72
10992;BME280;5549;47.028;15.514;2023-01-28T08:48:13;96865.00;;;2.18;69.78
10992;BME280;5549;47.028;15.514;2023-01-28T08:50:45;96867.53;;;2.19;69.84
10992;BME280;5549;47.028;15.514;2023-01-28T08:53:14;96864.16;;;1.99;70.35
10992;BME280;5549;47.028;15.514;2023-01-28T08:55:43;96860.19;;;2.10;70.51
10992;BME280;5549;47.028;15.514;2023-01-28T08:58:14;96867.25;;;2.25;69.55
10992;BME280;5549;47.028;15.514;2023-01-28T09:00:44;96864.72;;;2.24;69.87
10992;BME280;5549;47.028;15.514;2023-01-28T09:03:12;96870.75;;;2.24;69.86
10992;BME280;5549;47.028;15.514;2023-01-28T09:05:43;96867.03;;;2.30;70.25
10992;BME280;5549;47.028;15.514;2023-01-28T09:08:14;96873.75;;;2.15;69.89
10992;BME280;5549;47.028;15.514;2023-01-28T09:10:42;96872.28;;;2.10;69.90
10992;BME280;5549;47.028;15.514;2023-01-28T09:13:12;96876.91;;;2.22;69.60
10992;BME280;5549;47.028;15.514;2023-01-28T09:15:42;96880.75;;;2.32;69.28
10992;BME280;5549;47.028;15.514;2023-01-28T09:18:10;96886.16;;;2.28;69.63
10992;BME280;5549;47.028;15.514;2023-01-28T09:20:40;96888.66;;;2.29;70.02
10992;BME280;5549;47.028;15.514;2023-01-28T09:23:10;96895.31;;;2.35;70.40
10992;BME280;5549;47.028;15.514;2023-01-28T09:25:40;96891.75;;;2.37;70.42
10992;BME280;5549;47.028;15.514;2023-01-28T09:28:08;96895.66;;;2.46;69.94
10992;BME280;5549;47.028;15.514;2023-01-28T09:30:35;96896.56;;;2.45;69.48
10992;BME280;5549;47.028;15.514;2023-01-28T09:33:05;96888.38;;;2.54;69.21
10992;BME280;5549;47.028;15.514;2023-01-28T09:35:35;96891.03;;;2.52;69.52
10992;BME280;5549;47.028;15.514;2023-01-28T09:38:03;96896.78;;;2.21;68.97
10992;BME280;5549;47.028;15.514;2023-01-28T09:40:38;96894.69;;;1.92;69.83
10992;BME280;5549;47.028;15.514;2023-01-28T09:43:24;96895.94;;;2.02;70.19
10992;BME280;5549;47.028;15.514;2023-01-28T09:45:58;96898.13;;;2.11;70.54
10992;BME280;5549;47.028;15.514;2023-01-28T09:48:31;96898.75;;;2.16;71.16
10992;BME280;5549;47.028;15.514;2023-01-28T09:51:08;96891.75;;;2.18;71.08
10992;BME280;5549;47.028;15.514;2023-01-28T09:53:40;96900.50;;;2.35;70.56
10992;BME280;5549;47.028;15.514;2023-01-28T09:56:14;96892.59;;;2.38;70.15
10992;BME280;5549;47.028;15.514;2023-01-28T09:58:45;96897.34;;;2.47;70.01
10992;BME280;5549;47.028;15.514;2023-01-28T10:01:35;96895.03;;;2.60;69.76
10992;BME280;5549;47.028;15.514;2023-01-28T10:04:17;96896.63;;;2.62;69.13
10992;BME280;5549;47.028;15.514;2023-01-28T10:06:59;96893.75;;;2.68;67.72
10992;BME280;5549;47.028;15.514;2023-01-28T10:09:38;96892.22;;;2.64;68.20
10992;BME280;5549;47.028;15.514;2023-01-28T10:12:50;96890.00;;;2.38;69.62
10992;BME280;5549;47.028;15.514;2023-01-28T10:15:30;96893.00;;;2.29;69.89
10992;BME280;5549;47.028;15.514;2023-01-28T10:18:09;96891.41;;;2.26;69.90
10992;BME280;5549;47.028;15.514;2023-01-28T10:20:40;96892.31;;;2.06;71.22
10992;BME280;5549;47.028;15.514;2023-01-28T10:23:16;96885.88;;;2.15;70.97
10992;BME280;5549;47.028;15.514;2023-01-28T10:25:47;96890.06;;;2.17;71.28
10992;BME280;5549;47.028;15.514;2023-01-28T10:28:21;96885.88;;;2.34;70.87
10992;BME280;5549;47.028;15.514;2023-01-28T10:30:50;96881.03;;;2.45;71.18
10992;BME280;5549;47.028;15.514;2023-01-28T10:33:22;96891.97;;;2.33;71.64
10992;BME280;5549;47.028;15.514;2023-01-28T10:35:52;96892.44;;;2.41;71.23
10992;BME280;5549;47.028;15.514;2023-01-28T10:38:22;96882.72;;;2.46;71.38
10992;BME280;5549;47.028;15.514;2023-01-28T10:40:50;96884.59;;;2.23;71.61
10992;BME280;5549;47.028;15.514;2023-01-28T10:43:23;96884.75;;;2.20;70.94
10992;BME280;5549;47.028;15.514;2023-01-28T10:45:59;96888.19;;;2.21;71.64
10992;BME280;5549;47.028;15.514;2023-01-28T10:48:31;96891.81;;;1.98;71.95
10992;BME280;5549;47.028;15.514;2023-01-28T10:51:01;96881.53;;;2.15;71.92
10992;BME280;5549;47.028;15.514;2023-01-28T10:53:35;96892.09;;;2.11;72.20
10992;BME280;5549;47.028;15.514;2023-01-28T10:56:06;96890.91;;;1.99;72.02
10992;BME280;5549;47.028;15.514;2023-01-28T10:58:49;96885.16;;;1.92;72.45
10992;BME280;5549;47.028;15.514;2023-01-28T11:01:20;96883.91;;;2.01;72.34
10992;BME280;5549;47.028;15.514;2023-01-28T11:03:55;96880.28;;;2.05;72.56
10992;BME280;5549;47.028;15.514;2023-01-28T11:06:26;96880.59;;;1.79;71.33
10992;BME280;5549;47.028;15.514;2023-01-28T11:08:55;96876.69;;;1.89;71.57
10992;BME280;5549;47.028;15.514;2023-01-28T11:11:26;96871.63;;;1.86;71.76
10992;BME280;5549;47.028;15.514;2023-01-28T11:13:58;96878.03;;;1.98;71.43
10992;BME280;5549;47.028;15.514;2023-01-28T11:16:26;96879.13;;;1.92;71.26
10992;BME280;5549;47.028;15.514;2023-01-28T11:18:57;96871.66;;;1.66;71.90
10992;BME280;5549;47.028;15.514;2023-01-28T11:21:28;96877.22;;;1.77;70.83
10992;BME280;5549;47.028;15.514;2023-01-28T11:24:01;96876.59;;;1.51;72.70
10992;BME280;5549;47.028;15.514;2023-01-28T11:26:32;96874.72;;;1.94;76.27
10992;BME280;5549;47.028;15.514;2023-01-28T11:29:04;96874.44;;;1.81;73.81
10992;BME280;5549;47.028;15.514;2023-01-28T11:31:40;96870.09;;;1.82;73.02
10992;BME280;5549;47.028;15.514;2023-01-28T11:34:16;96868.78;;;1.92;73.00
10992;BME280;5549;47.028;15.514;2023-01-28T11:36:51;96867.31;;;2.05;72.90
10992;BME280;5549;47.028;15.514;2023-01-28T11:39:23;96858.00;;;1.82;72.32
10992;BME280;5549;47.028;15.514;2023-01-28T11:41:54;96860.25;;;1.90;72.45
10992;BME280;5549;47.028;15.514;2023-01-28T11:44:30;96858.00;;;1.82;72.72
10992;BME280;5549;47.028;15.514;2023-01-28T11:47:18;96856.53;;;1.56;73.13
10992;BME280;5549;47.028;15.514;2023-01-28T11:50:19;96857.56;;;1.52;73.52
10992;BME280;5549;47.028;15.514;2023-01-28T11:52:59;96862.00;;;1.69;72.96
10992;BME280;5549;47.028;15.514;2023-01-28T11:55:58;96856.03;;;1.87;72.57
10992;BME280;5549;47.028;15.514;2023-01-28T11:58:38;96862.63;;;1.95;73.13
10992;BME280;5549;47.028;15.514;2023-01-28T12:01:20;96855.19;;;2.06;73.29
10992;BME280;5549;47.028;15.514;2023-01-28T12:04:24;96856.53;;;2.14;72.68
10992;BME280;5549;47.028;15.514;2023-01-28T12:07:22;96845.75;;;2.23;72.77
10992;BME280;5549;47.028;15.514;2023-01-28T12:09:59;96851.50;;;2.11;71.97
10992;BME280;5549;47.028;15.514;2023-01-28T12:12:48;96847.22;;;2.29;71.86
10992;BME280;5549;47.028;15.514;2023-01-28T12:19:02;96845.78;;;2.41;71.30
10992;BME280;5549;47.028;15.514;2023-01-28T12:21:49;96849.81;;;2.10;71.85
10992;BME280;5549;47.028;15.514;2023-01-28T12:24:43;96840.22;;;1.93;73.42
10992;BME280;5549;47.028;15.514;2023-01-28T12:27:30;96835.75;;;2.16;72.59
10992;BME280;5549;47.028;15.514;2023-01-28T12:30:16;96839.38;;;2.12;72.50
10992;BME280;5549;47.028;15.514;2023-01-28T12:32:59;96843.22;;;2.03;72.58
10992;BME280;5549;47.028;15.514;2023-01-28T12:35:41;96842.31;;;2.04;71.62
10992;BME280;5549;47.028;15.514;2023-01-28T12:38:26;96842.75;;;1.95;71.27
10992;BME280;5549;47.028;15.514;2023-01-28T12:41:03;96844.91;;;1.85;71.47
10992;BME280;5549;47.028;15.514;2023-01-28T12:43:47;96841.34;;;2.07;71.90
10992;BME280;5549;47.028;15.514;2023-01-28T12:46:28;96846.72;;;2.02;72.12
10992;BME280;5549;47.028;15.514;2023-01-28T12:49:05;96843.72;;;2.11;71.81
10992;BME280;5549;47.028;15.514;2023-01-28T12:51:47;96840.78;;;1.81;72.34
10992;BME280;5549;47.028;15.514;2023-01-28T12:54:21;96849.75;;;1.93;71.50
10992;BME280;5549;47.028;15.514;2023-01-28T12:56:54;96850.44;;;1.78;72.51
10992;BME280;5549;47.028;15.514;2023-01-28T12:59:29;96844.28;;;1.99;72.02
10992;BME280;5549;47.028;15.514;2023-01-28T13:02:18;96839.38;;;1.93;71.82
10992;BME280;5549;47.028;15.514;2023-01-28T13:04:59;96842.03;;;2.10;71.71
10992;BME280;5549;47.028;15.514;2023-01-28T13:07:38;96846.53;;;2.07;72.05
10992;BME280;5549;47.028;15.514;2023-01-28T13:10:18;96847.22;;;1.91;72.23
10992;BME280;5549;47.028;15.514;2023-01-28T13:12:51;96849.31;;;2.02;72.01
10992;BME280;5549;47.028;15.514;2023-01-28T13:15:20;96847.22;;;1.91;71.83
10992;BME280;5549;47.028;15.514;2023-01-28T13:17:57;96848.63;;;1.99;71.35
10992;BME280;5549;47.028;15.514;2023-01-28T13:20:37;96847.78;;;2.17;71.26
10992;BME280;5549;47.028;15.514;2023-01-28T13:23:24;96843.50;;;2.16;71.84
10992;BME280;5549;47.028;15.514;2023-01-28T13:25:53;96853.81;;;1.99;72.14
10992;BME280;5549;47.028;15.514;2023-01-28T13:28:29;96855.63;;;2.15;71.31
10992;BME280;5549;47.028;15.514;2023-01-28T13:31:05;96850.94;;;2.05;71.14
10992;BME280;5549;47.028;15.514;2023-01-28T13:33:37;96851.97;;;2.19;71.10
10992;BME280;5549;47.028;15.514;2023-01-28T13:36:23;96862.06;;;2.25;70.64
10992;BME280;5549;47.028;15.514;2023-01-28T13:39:04;96864.66;;;2.25;70.92
10992;BME280;5549;47.028;15.514;2023-01-28T13:41:40;96863.13;;;2.21;71.39
10992;BME280;5549;47.028;15.514;2023-01-28T13:44:26;96875.16;;;2.22;70.84